Flight Track Log - Related Links

Times and Time Zones

All times are in EDT time to prevent confusion due to time zone crossing. See the ASQ5398 flight status page for this flight to view local times or setup timezone preferences in your user account.


Time Position Orientation Groundspeed Altitude Reporting Facility
EDT Latitude Longitude Course Direction KTS MPH feet Rate Location/Type
Thu 03:16:32 PM 33.6328 -84.4778 229° Southwest 385 443 2,600  Level Atlanta Center
Thu 03:16:51 PM 33.6167 -84.5000 229° Southwest 194 223 2,900 1,823 Climbing Atlanta TRACON
Thu 03:17:51 PM 33.5833 -84.5667 239° Southwest 268 308 5,000 2,500 Climbing Atlanta TRACON
Thu 03:18:51 PM 33.5167 -84.5833 192° South 262 302 7,900 2,050 Climbing Atlanta TRACON
Thu 03:20:32 PM 33.4553 -84.4744 124° Southeast 312 359 10,500 1,491 Climbing Atlanta Center
Thu 03:21:32 PM 33.4558 -84.3550 90° East 344 396 11,900 1,550 Climbing Atlanta Center
Thu 03:22:32 PM 33.4642 -84.2356 85° East 356 410 13,600 1,550 Climbing Atlanta Center
Thu 03:23:32 PM 33.4811 -84.1086 81° East 372 428 15,000 1,400 Climbing Atlanta Center
Thu 03:24:32 PM 33.5000 -83.9764 80° East 392 451 16,400 1,400 Climbing Atlanta Center
Thu 03:25:32 PM 33.5206 -83.8369 80° East 392 451 17,800 1,250 Climbing Atlanta Center
Thu 03:26:32 PM 33.5369 -83.7025 82° East 392 451 18,900 1,200 Climbing Atlanta Center
Thu 03:27:32 PM 33.5553 -83.5678 81° East 405 466 20,200 1,050 Climbing Atlanta Center
Thu 03:28:32 PM 33.5714 -83.4306 82° East 412 474 21,000 400 Climbing Atlanta Center
Thu 03:29:32 PM 33.5875 -83.2883 82° East 420 483 21,000 500 Level Atlanta Center
Thu 03:30:32 PM 33.6053 -83.1358 82° East 444 511 22,000 1,000 Climbing Atlanta Center
Thu 03:31:32 PM 33.6206 -82.9911 83° East 444 511 23,000 800 Climbing Atlanta Center
Thu 03:32:32 PM 33.6339 -82.8436 84° East 444 511 23,600 549 Climbing Atlanta Center
Thu 03:34:16 PM 33.6608 -82.5856 83° East 456 525 24,500 512 Climbing Jacksonville Center
Thu 03:35:16 PM 33.6792 -82.4283 82° East 467 537 25,000 450 Climbing Jacksonville Center
Thu 03:36:16 PM 33.6950 -82.2686 83° East 474 545 25,400 450 Climbing Jacksonville Center
Thu 03:37:16 PM 33.7172 -82.1111 80° East 474 545 25,900 500 Climbing Jacksonville Center
Thu 03:38:16 PM 33.7517 -81.9608 75° East 474 545 26,400 500 Climbing Jacksonville Center
Thu 03:39:16 PM 33.7817 -81.8206 76° East 474 545 26,900 300 Climbing Jacksonville Center
Thu 03:40:16 PM 33.8158 -81.6703 75° East 474 545 27,000 50 Climbing Jacksonville Center
Thu 03:41:16 PM 33.8478 -81.5172 76° East 469 540 27,000  Level Jacksonville Center
Thu 03:42:16 PM 33.8814 -81.3667 75° East 469 540 27,000  Level Jacksonville Center
Thu 03:43:16 PM 33.9131 -81.2183 76° East 469 540 27,000  Level Jacksonville Center
Thu 03:44:16 PM 33.9464 -81.0675 75° East 463 533 27,000  Level Jacksonville Center
Thu 03:45:16 PM 33.9794 -80.9042 76° East 453 521 27,000 -350 Level Jacksonville Center
Thu 03:46:16 PM 34.0103 -80.7531 76° East 458 527 26,300 -700 Descending Jacksonville Center
Thu 03:47:16 PM 34.0431 -80.5994 76° East 458 527 25,600 -700 Descending Jacksonville Center
Thu 03:48:16 PM 34.0756 -80.4381 76° East 472 543 24,900 -700 Descending Jacksonville Center
Thu 03:49:16 PM 34.1097 -80.2792 75° East 482 555 24,200 -700 Descending Jacksonville Center
Thu 03:50:16 PM 34.1417 -80.1125 77° East 489 563 23,500 -600 Descending Jacksonville Center
Thu 03:51:16 PM 34.1736 -79.9558 76° East 489 563 23,000 -250 Descending Jacksonville Center
Thu 03:52:16 PM 34.2053 -79.7967 76° East 484 557 23,000  Level Jacksonville Center
Thu 03:53:16 PM 34.2392 -79.6472 75° East 476 548 23,000  Level Jacksonville Center
Thu 03:54:16 PM 34.2775 -79.5203 70° East 462 532 23,000  Level Jacksonville Center
Thu 03:56:02 PM 34.3614 -79.2700 68° East 464 534 23,000  Level Washington Center
Thu 03:57:03 PM 34.4072 -79.1336 68° East 459 528 23,000  Level Washington Center
Thu 03:58:04 PM 34.4556 -78.9844 69° East 441 507 23,000  Level Washington Center
Thu 03:59:02 PM 34.5011 -78.8453 68° East 435 501 23,000 -50 Level Washington Center
Thu 04:00:03 PM 34.5467 -78.7033 69° East 439 505 22,900 -738 Descending Washington Center
Thu 04:01:04 PM 34.5872 -78.5814 68° East 444 511 21,500 -1,488 Descending Washington Center
Thu 04:02:04 PM 34.6369 -78.4292 68° East 444 511 19,900 -1,590 Descending Washington Center
Thu 04:03:01 PM 34.6794 -78.2994 68° East 427 491 18,400 -1,525 Descending Washington Center
Thu 04:04:02 PM 34.7200 -78.1719 69° East 412 474 16,900 -1,636 Descending Washington Center
Thu 04:05:02 PM 34.7578 -78.0544 69° East 391 450 15,100 -1,884 Descending Washington Center
Thu 04:06:03 PM 34.7956 -77.9392 68° East 378 435 13,100 -1,800 Descending Washington Center
Thu 04:07:02 PM 34.8269 -77.8286 71° East 366 421 11,500 -1,059 Descending Washington Center
Thu 04:08:02 PM 34.8622 -77.7208 68° East 360 414 11,000 -1,041 Descending Washington Center
Thu 04:09:03 PM 34.8933 -77.6178 70° East 347 399 9,400 -1,623 Descending Washington Center
Thu 04:10:04 PM 34.9261 -77.5172 68° East 325 374 7,700 -1,714 Descending Washington Center
Thu 04:11:02 PM 34.9592 -77.4167 68° East 318 366 6,000 -1,462 Descending Washington Center
Thu 04:12:03 PM 34.9856 -77.3261 70° East 303 349 4,800 -1,180 Descending Washington Center
Thu 04:13:04 PM 35.0139 -77.2378 69° East 289 333 3,600 -1,190 Descending Washington Center
Thu 04:14:04 PM 35.0628 -77.1653 51° Northeast 276 318 2,400 -864 Descending Washington Center
Thu 04:15:02 PM 35.1097 -77.0950 51° Northeast 265 305 1,900 -403 Descending Washington Center
Thu 04:16:03 PM 35.1542 -77.0425 44° Northeast 228 262 1,600 -295 Descending Washington Center

Login

Don't have an account? Register now (free) for customized features, flight alerts, and more!